createdAt,value
2022-07-29T00:13:17.287Z,97945.34
2022-07-29T00:43:21.568Z,97950.19
2022-07-29T01:13:27.306Z,97926.56
2022-07-29T01:43:38.320Z,97888.28
2022-07-29T02:13:43.403Z,97864.91
2022-07-29T02:43:49.936Z,97860.69
2022-07-29T03:13:54.583Z,97851.94
2022-07-29T03:44:00.371Z,97854.38
2022-07-29T04:14:11.676Z,97853.47
2022-07-29T04:44:16.438Z,97869.47
2022-07-29T05:14:21.559Z,97884.97
2022-07-29T05:44:29.965Z,97900.44
2022-07-29T06:14:39.262Z,97922.88
2022-07-29T06:44:46.125Z,97944.28
2022-07-29T07:14:53.000Z,97962.91
2022-07-29T07:45:12.665Z,97957.38
2022-07-29T08:15:18.349Z,97968.59
2022-07-29T08:45:22.995Z,97987.84
2022-07-29T09:15:28.294Z,97962.16
2022-07-29T09:45:34.674Z,97961.00
2022-07-29T10:15:41.843Z,97941.63
2022-07-29T10:45:47.289Z,97931.22
2022-07-29T11:15:58.738Z,97912.47
2022-07-29T11:46:03.196Z,97900.91
2022-07-29T12:16:08.579Z,97894.50
2022-07-29T12:46:17.311Z,97868.94
2022-07-29T13:16:21.958Z,97857.94
2022-07-29T13:46:29.502Z,97867.13
2022-07-29T14:16:35.527Z,97876.13
2022-07-29T14:46:41.624Z,97887.88
2022-07-29T15:16:52.707Z,97860.22
2022-07-29T15:47:07.258Z,97858.19
2022-07-29T16:17:14.729Z,97850.19
2022-07-29T16:47:19.440Z,97876.75
2022-07-29T17:17:39.096Z,97912.06
2022-07-29T17:47:45.059Z,97959.50
2022-07-29T18:17:56.998Z,97988.34
2022-07-29T18:48:01.692Z,98002.28
2022-07-29T19:18:07.073Z,98045.81
2022-07-29T19:48:11.258Z,98075.91
2022-07-29T20:18:16.330Z,98101.53
2022-07-29T20:48:20.614Z,98116.50
2022-07-29T21:18:31.908Z,98129.16
2022-07-29T21:48:40.071Z,98123.53
2022-07-29T22:18:47.971Z,98140.59
2022-07-29T22:48:52.125Z,98147.94
2022-07-29T23:18:56.589Z,98151.03
2022-07-29T23:49:00.852Z,98133.78
